createdAt,value
2018-07-02T00:01:52.092Z,1.40
2018-07-02T00:06:07.419Z,1.57
2018-07-02T00:10:11.079Z,1.43
2018-07-02T00:14:14.808Z,0.90
2018-07-02T00:18:18.682Z,1.30
2018-07-02T00:22:22.649Z,1.10
2018-07-02T00:26:26.500Z,1.37
2018-07-02T00:30:30.357Z,1.30
2018-07-02T00:34:34.211Z,1.20
2018-07-02T00:38:38.105Z,1.43
2018-07-02T00:42:42.056Z,1.47
2018-07-02T00:46:45.884Z,1.30
2018-07-02T00:50:49.739Z,1.63
2018-07-02T00:54:53.617Z,1.40
2018-07-02T00:58:57.460Z,1.10
2018-07-02T01:03:01.321Z,1.27
2018-07-02T01:07:05.188Z,1.27
2018-07-02T01:11:09.053Z,1.87
2018-07-02T01:15:12.923Z,1.10
2018-07-02T01:19:16.763Z,1.20
2018-07-02T01:23:20.701Z,1.20
2018-07-02T01:27:24.604Z,0.90
2018-07-02T01:31:28.468Z,1.10
2018-07-02T01:35:32.350Z,1.13
2018-07-02T01:39:36.262Z,1.10
2018-07-02T01:43:40.143Z,0.90
2018-07-02T01:47:44.021Z,1.50
2018-07-02T01:51:47.931Z,0.97
2018-07-02T01:55:51.792Z,1.20
2018-07-02T01:59:55.647Z,1.30
2018-07-02T02:03:59.508Z,1.20
2018-07-02T02:08:03.383Z,1.37
2018-07-02T02:12:07.273Z,1.00
2018-07-02T02:16:11.139Z,1.10
2018-07-02T02:20:15.012Z,1.17
2018-07-02T02:24:18.872Z,1.03
2018-07-02T02:28:22.732Z,1.00
2018-07-02T02:32:26.595Z,1.30
2018-07-02T02:36:30.452Z,1.20
2018-07-02T02:40:34.307Z,1.10
2018-07-02T02:44:38.175Z,1.37
2018-07-02T02:48:42.040Z,1.20
2018-07-02T02:52:45.956Z,1.40
2018-07-02T02:56:49.827Z,1.27
2018-07-02T03:00:53.699Z,1.50
2018-07-02T03:04:57.556Z,1.30
2018-07-02T03:09:01.585Z,1.10
2018-07-02T03:13:06.018Z,1.40
2018-07-02T03:17:09.927Z,1.53
2018-07-02T03:21:14.436Z,1.37
2018-07-02T03:25:18.288Z,1.20
2018-07-02T03:29:22.169Z,1.33
2018-07-02T03:33:26.050Z,1.40
2018-07-02T03:37:29.904Z,1.50
2018-07-02T03:41:33.785Z,1.60
2018-07-02T03:45:37.653Z,1.50
2018-07-02T03:49:41.525Z,1.40
2018-07-02T03:53:45.361Z,1.20
2018-07-02T03:57:49.240Z,1.13
2018-07-02T04:01:53.116Z,1.50
2018-07-02T04:05:57.001Z,1.27
2018-07-02T04:10:00.856Z,1.73
2018-07-02T04:14:04.784Z,1.10
2018-07-02T04:18:08.692Z,1.13
2018-07-02T04:22:12.544Z,1.40
2018-07-02T04:26:16.684Z,1.23
2018-07-02T04:30:20.544Z,1.43
2018-07-02T04:34:24.407Z,1.27
2018-07-02T04:38:28.268Z,1.30
2018-07-02T04:42:32.219Z,1.10
2018-07-02T04:46:36.136Z,1.27
2018-07-02T04:50:40.019Z,1.53
2018-07-02T04:54:43.912Z,1.40
2018-07-02T04:58:47.815Z,1.73
2018-07-02T05:02:51.752Z,1.47
2018-07-02T05:06:55.621Z,1.60
2018-07-02T05:10:59.550Z,1.83
2018-07-02T05:15:03.337Z,1.40
2018-07-02T05:19:07.066Z,0.93
2018-07-02T05:23:10.936Z,1.33
2018-07-02T05:27:14.836Z,1.20
2018-07-02T05:31:18.697Z,1.40
2018-07-02T05:35:22.585Z,1.30
2018-07-02T05:39:26.429Z,1.40
2018-07-02T05:43:30.292Z,1.43
2018-07-02T05:47:34.180Z,1.53
2018-07-02T05:51:38.056Z,1.30
2018-07-02T05:55:41.917Z,1.13
2018-07-02T05:59:45.784Z,1.20
2018-07-02T06:03:49.648Z,1.20
2018-07-02T06:07:53.565Z,1.43
2018-07-02T06:11:57.444Z,1.30
2018-07-02T06:16:01.308Z,1.50
2018-07-02T06:20:05.156Z,1.30
2018-07-02T06:24:09.020Z,1.23
2018-07-02T06:28:12.852Z,1.00
2018-07-02T06:32:16.723Z,1.60
2018-07-02T06:36:20.625Z,1.00
2018-07-02T06:40:24.496Z,1.00
2018-07-02T06:44:28.600Z,1.00
2018-07-02T06:48:32.509Z,0.87
2018-07-02T06:52:36.340Z,0.90
2018-07-02T06:56:39.980Z,1.20
2018-07-02T07:00:43.703Z,1.00
2018-07-02T07:04:47.580Z,1.10
2018-07-02T07:08:51.195Z,1.07
2018-07-02T07:12:54.971Z,1.00
2018-07-02T07:16:58.876Z,1.10
2018-07-02T07:21:02.568Z,1.37
2018-07-02T07:25:06.288Z,0.73
2018-07-02T07:29:10.149Z,1.50
2018-07-02T07:33:13.795Z,1.17
2018-07-02T07:37:17.668Z,1.20
2018-07-02T07:41:21.497Z,1.00
2018-07-02T07:45:25.237Z,0.80
2018-07-02T07:49:29.036Z,0.93
2018-07-02T07:53:32.900Z,0.73
2018-07-02T07:57:36.768Z,1.20
2018-07-02T08:01:40.644Z,1.10
2018-07-02T08:05:44.520Z,1.03
2018-07-02T08:09:48.383Z,0.97
2018-07-02T08:13:52.240Z,1.20
2018-07-02T08:17:56.217Z,0.97
2018-07-02T08:22:00.066Z,0.87
2018-07-02T08:26:03.928Z,1.13
2018-07-02T08:30:08.160Z,0.80
2018-07-02T08:34:12.052Z,1.00
2018-07-02T08:38:15.904Z,1.10
2018-07-02T08:42:19.782Z,1.00
2018-07-02T08:46:23.636Z,1.07
2018-07-02T08:50:27.501Z,1.17
2018-07-02T08:54:31.360Z,1.07
2018-07-02T08:58:35.228Z,0.97
2018-07-02T09:02:39.082Z,0.83
2018-07-02T09:06:42.728Z,0.80
2018-07-02T09:10:46.569Z,1.10
2018-07-02T09:14:50.408Z,1.37
2018-07-02T09:18:54.346Z,0.90
2018-07-02T09:22:58.204Z,1.00
2018-07-02T09:27:02.076Z,1.00
2018-07-02T09:31:05.941Z,1.10
2018-07-02T09:35:09.801Z,0.80
2018-07-02T09:39:14.062Z,1.20
2018-07-02T09:43:17.969Z,0.63
2018-07-02T09:47:21.864Z,0.63
2018-07-02T09:51:25.757Z,0.77
2018-07-02T09:55:29.620Z,1.20
2018-07-02T09:59:33.594Z,1.20
2018-07-02T10:03:37.476Z,0.80
2018-07-02T10:07:41.324Z,0.80
2018-07-02T10:11:45.172Z,0.80
2018-07-02T10:15:49.056Z,0.60
2018-07-02T10:19:53.104Z,0.93
2018-07-02T10:23:57.127Z,1.00
2018-07-02T10:28:00.959Z,0.80
2018-07-02T10:32:04.808Z,1.00
2018-07-02T10:36:08.669Z,0.80
2018-07-02T10:40:12.526Z,1.00
2018-07-02T10:44:16.396Z,0.60
2018-07-02T10:48:20.252Z,0.87
2018-07-02T10:52:24.135Z,0.73
2018-07-02T10:56:28.009Z,0.73
2018-07-02T11:00:31.867Z,0.90
2018-07-02T11:04:35.840Z,0.70
2018-07-02T11:08:39.675Z,0.80
2018-07-02T11:12:43.547Z,0.70
2018-07-02T11:16:47.187Z,0.70
2018-07-02T11:20:50.976Z,0.70
2018-07-02T11:24:54.837Z,0.50
2018-07-02T11:28:58.507Z,0.70
2018-07-02T11:33:02.345Z,0.80
2018-07-02T11:37:06.298Z,0.70
2018-07-02T11:41:10.164Z,0.70
2018-07-02T11:45:14.052Z,0.80
2018-07-02T11:49:17.900Z,0.90
2018-07-02T11:53:21.772Z,0.50
2018-07-02T11:57:25.648Z,0.70
2018-07-02T12:01:29.487Z,0.90
2018-07-02T12:05:33.380Z,0.80
2018-07-02T12:09:37.332Z,0.57
2018-07-02T12:13:55.932Z,0.50
2018-07-02T12:17:59.816Z,0.40
2018-07-02T12:22:03.749Z,0.70
2018-07-02T12:26:07.663Z,0.70
2018-07-02T12:30:11.521Z,0.60
2018-07-02T12:34:15.365Z,0.77
2018-07-02T12:38:19.019Z,0.40
2018-07-02T12:42:22.752Z,0.90
2018-07-02T12:46:26.624Z,0.70
2018-07-02T12:50:30.287Z,0.70
2018-07-02T12:54:34.007Z,0.60
2018-07-02T12:58:37.856Z,0.93
2018-07-02T13:02:41.728Z,0.70
2018-07-02T13:06:45.582Z,0.70
2018-07-02T13:10:49.440Z,1.00
2018-07-02T13:14:53.316Z,0.70
2018-07-02T13:18:57.292Z,0.70
2018-07-02T13:23:01.170Z,0.80
2018-07-02T13:27:05.150Z,0.70
2018-07-02T13:31:08.988Z,0.97
2018-07-02T13:35:12.860Z,0.80
2018-07-02T13:39:16.731Z,0.60
2018-07-02T13:43:20.629Z,0.60
2018-07-02T13:47:24.488Z,0.50
2018-07-02T13:51:28.373Z,0.50
2018-07-02T13:55:32.215Z,0.67
2018-07-02T13:59:36.112Z,0.70
2018-07-02T14:03:39.947Z,0.80
2018-07-02T14:07:43.824Z,0.70
2018-07-02T14:11:47.725Z,0.53
2018-07-02T14:15:51.776Z,0.80
2018-07-02T14:19:55.759Z,0.90
2018-07-02T14:23:59.581Z,1.07
2018-07-02T14:28:03.224Z,0.63
2018-07-02T14:32:06.960Z,1.00
2018-07-02T14:36:10.795Z,0.60
2018-07-02T14:40:14.656Z,0.60
2018-07-02T14:44:18.513Z,0.70
2018-07-02T14:48:22.371Z,0.60
2018-07-02T14:52:26.409Z,0.80
2018-07-02T14:56:30.913Z,0.60
2018-07-02T15:00:34.804Z,0.57
2018-07-02T15:04:38.704Z,0.60
2018-07-02T15:08:42.583Z,0.60
2018-07-02T15:12:46.449Z,0.83
2018-07-02T15:16:50.100Z,0.70
2018-07-02T15:20:53.888Z,0.73
2018-07-02T15:24:57.729Z,0.60
2018-07-02T15:29:01.596Z,0.70
2018-07-02T15:33:05.466Z,0.67
2018-07-02T15:37:09.101Z,0.87
2018-07-02T15:41:12.832Z,0.63
2018-07-02T15:45:16.684Z,0.70
2018-07-02T15:49:20.548Z,0.67
2018-07-02T15:53:24.399Z,0.50
2018-07-02T15:57:28.312Z,0.77
2018-07-02T16:01:31.963Z,0.80
2018-07-02T16:05:35.708Z,0.90
2018-07-02T16:09:39.577Z,0.40
2018-07-02T16:13:43.443Z,0.73
2018-07-02T16:17:47.135Z,0.90
2018-07-02T16:21:50.876Z,1.20
2018-07-02T16:25:54.834Z,0.87
2018-07-02T16:29:58.784Z,0.97
2018-07-02T16:34:02.653Z,1.00
2018-07-02T16:38:06.536Z,1.60
2018-07-02T16:42:10.392Z,1.03
2018-07-02T16:46:14.264Z,0.87
2018-07-02T16:50:18.113Z,1.07
2018-07-02T16:54:21.998Z,1.17
2018-07-02T16:58:25.947Z,1.20
2018-07-02T17:02:29.824Z,1.20
2018-07-02T17:06:33.673Z,0.90
2018-07-02T17:10:37.319Z,0.90
2018-07-02T17:14:41.057Z,0.90
2018-07-02T17:18:45.000Z,1.23
2018-07-02T17:22:48.872Z,0.90
2018-07-02T17:26:52.837Z,1.10
2018-07-02T17:30:56.804Z,0.80
2018-07-02T17:35:00.651Z,1.07
2018-07-02T17:39:07.531Z,1.00
2018-07-02T17:43:11.365Z,0.90
2018-07-02T17:47:15.046Z,0.70
2018-07-02T17:51:18.791Z,1.03
2018-07-02T17:55:22.411Z,0.80
2018-07-02T17:59:26.176Z,0.80
2018-07-02T18:03:30.041Z,0.80
2018-07-02T18:07:33.936Z,0.70
2018-07-02T18:11:37.889Z,0.80
2018-07-02T18:15:41.743Z,1.37
2018-07-02T18:19:45.684Z,0.87
2018-07-02T18:23:49.655Z,0.87
2018-07-02T18:27:53.516Z,0.77
2018-07-02T18:31:57.385Z,0.77
2018-07-02T18:36:01.232Z,1.33
2018-07-02T18:40:05.600Z,1.00
2018-07-02T18:44:09.597Z,0.60
2018-07-02T18:48:13.496Z,0.70
2018-07-02T18:52:17.450Z,0.67
2018-07-02T18:56:21.298Z,0.60
2018-07-02T19:00:25.184Z,1.10
2018-07-02T19:04:29.039Z,0.80
2018-07-02T19:08:32.905Z,0.43
2018-07-02T19:12:36.884Z,0.80
2018-07-02T19:16:40.783Z,0.87
2018-07-02T19:20:44.649Z,0.60
2018-07-02T19:24:48.585Z,1.10
2018-07-02T19:28:52.476Z,0.80
2018-07-02T19:32:56.326Z,0.90
2018-07-02T19:37:00.176Z,0.60
2018-07-02T19:41:04.064Z,0.50
2018-07-02T19:45:07.960Z,0.70
2018-07-02T19:49:11.815Z,0.70
2018-07-02T19:53:15.691Z,1.00
2018-07-02T19:57:19.573Z,0.70
2018-07-02T20:01:23.431Z,0.90
2018-07-02T20:05:28.133Z,0.70
2018-07-02T20:09:32.091Z,1.10
2018-07-02T20:13:35.956Z,0.63
2018-07-02T20:17:39.863Z,1.63
2018-07-02T20:21:43.728Z,0.80
2018-07-02T20:25:47.755Z,0.60
2018-07-02T20:29:51.669Z,0.70
2018-07-02T20:33:55.523Z,0.80
2018-07-02T20:37:59.376Z,1.20
2018-07-02T20:42:03.308Z,0.90
2018-07-02T20:46:06.959Z,0.90
2018-07-02T20:50:10.823Z,1.00
2018-07-02T20:54:14.652Z,1.00
2018-07-02T20:58:18.516Z,0.80
2018-07-02T21:02:22.347Z,0.77
2018-07-02T21:06:26.216Z,1.07
2018-07-02T21:10:30.313Z,1.00
2018-07-02T21:14:34.236Z,1.17
2018-07-02T21:18:38.219Z,1.30
2018-07-02T21:22:42.093Z,1.23
2018-07-02T21:26:45.947Z,1.23
2018-07-02T21:30:49.816Z,1.07
2018-07-02T21:34:53.676Z,0.97
2018-07-02T21:38:57.597Z,0.80
2018-07-02T21:43:01.445Z,1.07
2018-07-02T21:47:05.478Z,1.07
2018-07-02T21:51:09.181Z,1.03
2018-07-02T21:55:13.033Z,1.10
2018-07-02T21:59:16.899Z,1.03
2018-07-02T22:03:20.856Z,1.00
2018-07-02T22:07:24.692Z,1.20
2018-07-02T22:11:28.540Z,1.13
2018-07-02T22:15:32.405Z,0.87
2018-07-02T22:19:36.311Z,1.00
2018-07-02T22:23:40.168Z,1.13
2018-07-02T22:27:44.016Z,1.40
2018-07-02T22:31:47.872Z,0.93
2018-07-02T22:35:51.728Z,1.30
2018-07-02T22:39:55.575Z,1.13
2018-07-02T22:43:59.476Z,1.30
2018-07-02T22:48:03.327Z,1.30
2018-07-02T22:52:07.301Z,1.53
2018-07-02T22:56:11.152Z,1.60
2018-07-02T23:00:15.016Z,1.70
2018-07-02T23:04:18.684Z,1.60
2018-07-02T23:08:22.880Z,1.77
2018-07-02T23:12:26.711Z,1.80
2018-07-02T23:16:30.574Z,2.00
2018-07-02T23:20:34.471Z,1.50
2018-07-02T23:24:38.452Z,1.97
2018-07-02T23:28:42.300Z,1.90
2018-07-02T23:32:46.179Z,2.17
2018-07-02T23:36:50.051Z,2.03
2018-07-02T23:40:53.916Z,2.60
2018-07-02T23:44:57.763Z,2.80
2018-07-02T23:49:01.668Z,2.77
2018-07-02T23:53:05.527Z,2.67
2018-07-02T23:57:09.376Z,2.50
